createdAt,value
2019-05-26T00:00:01.004Z,100559.66
2019-05-26T00:02:28.714Z,100560.81
2019-05-26T00:04:56.569Z,100553.89
2019-05-26T00:07:30.594Z,100556.70
2019-05-26T00:09:53.836Z,100555.80
2019-05-26T00:12:21.488Z,100546.48
2019-05-26T00:14:49.145Z,100545.48
2019-05-26T00:17:16.857Z,100547.91
2019-05-26T00:19:44.868Z,100545.13
2019-05-26T00:22:12.734Z,100538.53
2019-05-26T00:24:40.378Z,100533.70
2019-05-26T00:27:08.038Z,100536.24
2019-05-26T00:29:35.735Z,100536.59
2019-05-26T00:32:03.434Z,100522.97
2019-05-26T00:34:31.324Z,100521.80
2019-05-26T00:36:58.987Z,100515.91
2019-05-26T00:39:26.769Z,100513.89
2019-05-26T00:41:54.453Z,100514.69
2019-05-26T00:44:22.104Z,100524.30
2019-05-26T00:46:49.759Z,100515.41
2019-05-26T00:49:17.450Z,100509.11
2019-05-26T00:51:45.236Z,100514.02
2019-05-26T00:54:13.331Z,100510.45
2019-05-26T00:56:41.144Z,100516.97
2019-05-26T00:59:08.787Z,100506.16
2019-05-26T01:01:36.615Z,100502.05
2019-05-26T01:04:04.272Z,100496.98
2019-05-26T01:06:31.931Z,100498.09
2019-05-26T01:08:59.579Z,100503.34
2019-05-26T01:11:27.235Z,100512.77
2019-05-26T01:13:55.122Z,100518.58
2019-05-26T01:16:22.796Z,100512.14
2019-05-26T01:18:50.687Z,100514.20
2019-05-26T01:21:18.484Z,100508.61
2019-05-26T01:23:46.129Z,100513.34
2019-05-26T01:26:13.776Z,100505.88
2019-05-26T01:28:41.429Z,100498.83
2019-05-26T01:31:09.094Z,100504.67
2019-05-26T01:33:36.886Z,100511.66
2019-05-26T01:36:04.674Z,100512.86
2019-05-26T01:38:32.415Z,100511.66
2019-05-26T01:41:00.068Z,100510.84
2019-05-26T01:43:27.733Z,100512.13
2019-05-26T01:45:55.610Z,100520.51
2019-05-26T01:48:23.276Z,100519.85
2019-05-26T01:50:51.209Z,100521.44
2019-05-26T01:53:19.067Z,100521.70
2019-05-26T01:55:46.721Z,100521.89
2019-05-26T01:58:14.371Z,100518.77
2019-05-26T02:00:42.019Z,100517.34
2019-05-26T02:03:09.686Z,100517.30
2019-05-26T02:05:37.643Z,100510.59
2019-05-26T02:08:05.448Z,100512.23
2019-05-26T02:10:33.212Z,100509.16
2019-05-26T02:13:00.878Z,100506.47
2019-05-26T02:15:28.519Z,100495.88
2019-05-26T02:17:56.180Z,100498.95
2019-05-26T02:20:23.978Z,100496.64
2019-05-26T02:22:51.883Z,100503.41
2019-05-26T02:25:19.746Z,100504.73
2019-05-26T02:27:47.404Z,100515.28
2019-05-26T02:30:15.060Z,100501.20
2019-05-26T02:32:42.729Z,100507.77
2019-05-26T02:35:10.404Z,100508.75
2019-05-26T02:37:38.374Z,100509.95
2019-05-26T02:40:06.309Z,100511.20
2019-05-26T02:42:34.078Z,100510.22
2019-05-26T02:45:01.735Z,100510.02
2019-05-26T02:47:29.404Z,100507.47
2019-05-26T02:49:57.053Z,100502.83
2019-05-26T02:52:24.704Z,100503.66
2019-05-26T02:54:52.506Z,100515.34
2019-05-26T02:57:20.336Z,100506.16
2019-05-26T02:59:48.052Z,100511.56
2019-05-26T03:02:15.708Z,100507.80
2019-05-26T03:04:43.359Z,100497.02
2019-05-26T03:07:11.012Z,100504.19
2019-05-26T03:09:38.694Z,100495.38
2019-05-26T03:12:06.353Z,100493.37
2019-05-26T03:14:34.190Z,100490.39
2019-05-26T03:17:01.957Z,100494.60
2019-05-26T03:19:29.644Z,100490.94
2019-05-26T03:21:57.355Z,100490.32
2019-05-26T03:24:25.093Z,100491.55
2019-05-26T03:26:52.857Z,100494.11
2019-05-26T03:29:20.781Z,100495.52
2019-05-26T03:31:48.659Z,100493.08
2019-05-26T03:34:16.495Z,100492.59
2019-05-26T03:36:44.146Z,100488.08
2019-05-26T03:39:11.895Z,100489.84
2019-05-26T03:41:39.563Z,100494.58
2019-05-26T03:44:07.229Z,100493.95
2019-05-26T03:46:34.987Z,100492.95
2019-05-26T03:49:02.731Z,100490.98
2019-05-26T03:51:30.565Z,100498.05
2019-05-26T03:53:58.527Z,100499.31
2019-05-26T03:56:26.380Z,100503.09
2019-05-26T03:58:54.040Z,100505.13
2019-05-26T04:01:21.724Z,100505.92
2019-05-26T04:03:49.474Z,100494.79
2019-05-26T04:06:17.358Z,100494.79
2019-05-26T04:08:45.266Z,100502.63
2019-05-26T04:11:13.135Z,100502.58
2019-05-26T04:13:40.787Z,100503.87
2019-05-26T04:16:08.453Z,100501.20
2019-05-26T04:18:36.117Z,100497.21
2019-05-26T04:21:03.781Z,100492.62
2019-05-26T04:23:31.457Z,100485.81
2019-05-26T04:25:59.362Z,100490.78
2019-05-26T04:28:27.355Z,100490.78
2019-05-26T04:30:55.044Z,100488.19
2019-05-26T04:33:22.724Z,100480.52
2019-05-26T04:35:50.371Z,100481.19
2019-05-26T04:38:18.032Z,100475.18
2019-05-26T04:40:45.775Z,100470.86
2019-05-26T04:43:15.149Z,100467.28
2019-05-26T04:45:43.097Z,100462.67
2019-05-26T04:48:10.744Z,100463.81
2019-05-26T04:50:38.473Z,100462.55
2019-05-26T04:53:07.405Z,100461.59
2019-05-26T04:55:35.548Z,100464.27
2019-05-26T04:58:03.196Z,100457.62
2019-05-26T05:00:30.852Z,100467.20
2019-05-26T05:02:58.508Z,100456.13
2019-05-26T05:05:26.195Z,100456.61
2019-05-26T05:07:54.002Z,100462.34
2019-05-26T05:10:21.938Z,100464.06
2019-05-26T05:12:49.706Z,100467.84
2019-05-26T05:15:17.359Z,100463.47
2019-05-26T05:17:45.003Z,100464.75
2019-05-26T05:20:12.661Z,100461.23
2019-05-26T05:22:40.327Z,100464.50
2019-05-26T05:25:14.266Z,100470.01
2019-05-26T05:27:37.410Z,100470.38
2019-05-26T05:30:05.311Z,100468.55
2019-05-26T05:32:33.365Z,100467.03
2019-05-26T05:35:01.034Z,100464.53
2019-05-26T05:37:28.713Z,100464.07
2019-05-26T05:39:56.362Z,100462.83
2019-05-26T05:42:24.031Z,100460.91
2019-05-26T05:44:51.827Z,100465.18
2019-05-26T05:47:19.825Z,100460.75
2019-05-26T05:49:47.757Z,100465.73
2019-05-26T05:52:15.402Z,100462.77
2019-05-26T05:54:43.040Z,100461.02
2019-05-26T05:57:10.712Z,100452.12
2019-05-26T05:59:38.433Z,100455.47
2019-05-26T06:02:06.173Z,100461.92
2019-05-26T06:04:34.151Z,100454.19
2019-05-26T06:07:01.853Z,100458.89
2019-05-26T06:09:29.539Z,100457.78
2019-05-26T06:11:57.571Z,100455.59
2019-05-26T06:14:25.564Z,100456.91
2019-05-26T06:16:53.220Z,100455.78
2019-05-26T06:19:20.869Z,100465.38
2019-05-26T06:21:48.604Z,100460.39
2019-05-26T06:24:16.346Z,100456.52
2019-05-26T06:26:44.006Z,100453.72
2019-05-26T06:29:11.663Z,100456.03
2019-05-26T06:31:39.419Z,100459.36
2019-05-26T06:34:07.214Z,100455.11
2019-05-26T06:36:34.892Z,100454.61
2019-05-26T06:39:02.799Z,100448.77
2019-05-26T06:41:33.908Z,100447.71
2019-05-26T06:43:59.934Z,100447.17
2019-05-26T06:46:27.602Z,100444.42
2019-05-26T06:48:55.312Z,100442.30
2019-05-26T06:51:22.973Z,100446.87
2019-05-26T06:53:50.624Z,100440.00
2019-05-26T06:56:18.387Z,100437.41
2019-05-26T06:58:46.048Z,100430.66
2019-05-26T07:01:13.704Z,100431.23
2019-05-26T07:03:41.348Z,100431.62
2019-05-26T07:06:09.119Z,100433.77
2019-05-26T07:08:36.858Z,100437.34
2019-05-26T07:11:04.601Z,100446.87
2019-05-26T07:13:32.273Z,100442.02
2019-05-26T07:15:59.919Z,100432.86
2019-05-26T07:18:27.576Z,100432.80
2019-05-26T07:20:55.231Z,100438.51
2019-05-26T07:23:23.146Z,100432.63
2019-05-26T07:25:50.812Z,100435.16
2019-05-26T07:28:18.491Z,100438.22
2019-05-26T07:30:46.146Z,100442.26
2019-05-26T07:33:13.801Z,100442.83
2019-05-26T07:35:41.568Z,100442.58
2019-05-26T07:38:09.219Z,100440.30
2019-05-26T07:40:36.882Z,100438.39
2019-05-26T07:43:04.527Z,100437.67
2019-05-26T07:45:32.184Z,100437.98
2019-05-26T07:48:00.126Z,100424.30
2019-05-26T07:50:27.776Z,100425.98
2019-05-26T07:52:55.522Z,100420.88
2019-05-26T07:55:23.188Z,100417.09
2019-05-26T07:57:50.862Z,100416.66
2019-05-26T08:00:18.513Z,100414.47
2019-05-26T08:02:46.261Z,100419.59
2019-05-26T08:05:14.117Z,100412.68
2019-05-26T08:07:41.884Z,100403.89
2019-05-26T08:10:09.798Z,100407.84
2019-05-26T08:12:37.502Z,100407.34
2019-05-26T08:15:05.135Z,100402.09
2019-05-26T08:17:32.859Z,100402.16
2019-05-26T08:20:00.509Z,100399.50
2019-05-26T08:22:40.684Z,100395.89
2019-05-26T08:25:08.405Z,100391.16
2019-05-26T08:27:36.267Z,100388.42
2019-05-26T08:30:03.924Z,100374.42
2019-05-26T08:32:32.004Z,100375.42
2019-05-26T08:34:59.748Z,100381.44
2019-05-26T08:37:27.396Z,100377.09
2019-05-26T08:39:57.312Z,100366.30
2019-05-26T08:42:28.963Z,100370.29
2019-05-26T08:44:54.395Z,100365.09
2019-05-26T08:47:22.103Z,100365.02
2019-05-26T08:49:50.032Z,100367.82
2019-05-26T08:52:17.780Z,100362.36
2019-05-26T08:54:45.716Z,100363.06
2019-05-26T08:57:13.439Z,100356.65
2019-05-26T08:59:41.253Z,100355.86
2019-05-26T09:02:08.914Z,100355.46
2019-05-26T09:04:36.580Z,100350.70
2019-05-26T09:07:04.225Z,100345.33
2019-05-26T09:09:31.875Z,100345.81
2019-05-26T09:11:59.545Z,100338.67
2019-05-26T09:14:27.215Z,100336.02
2019-05-26T09:16:54.878Z,100334.92
2019-05-26T09:19:22.627Z,100334.88
2019-05-26T09:21:50.648Z,100331.19
2019-05-26T09:24:18.308Z,100325.13
2019-05-26T09:26:45.975Z,100322.27
2019-05-26T09:29:13.661Z,100314.80
2019-05-26T09:31:41.688Z,100317.96
2019-05-26T09:34:09.556Z,100313.70
2019-05-26T09:36:37.215Z,100313.12
2019-05-26T09:39:05.611Z,100302.41
2019-05-26T09:41:33.276Z,100307.20
2019-05-26T09:44:01.480Z,100302.91
2019-05-26T09:46:29.461Z,100306.05
2019-05-26T09:49:00.649Z,100302.48
2019-05-26T09:51:26.495Z,100290.63
2019-05-26T09:54:01.530Z,100289.79
2019-05-26T09:56:23.748Z,100283.70
2019-05-26T09:58:51.408Z,100291.89
2019-05-26T10:01:19.060Z,100284.66
2019-05-26T10:03:46.741Z,100289.55
2019-05-26T10:06:14.412Z,100292.16
2019-05-26T10:08:42.073Z,100283.38
2019-05-26T10:11:09.737Z,100285.75
2019-05-26T10:13:37.502Z,100278.86
2019-05-26T10:16:05.180Z,100280.00
2019-05-26T10:18:32.912Z,100280.50
2019-05-26T10:21:00.557Z,100271.14
2019-05-26T10:23:28.211Z,100267.38
2019-05-26T10:25:56.096Z,100273.66
2019-05-26T10:28:23.751Z,100276.22
2019-05-26T10:30:51.515Z,100268.13
2019-05-26T10:33:19.356Z,100271.87
2019-05-26T10:35:47.014Z,100269.45
2019-05-26T10:38:14.750Z,100258.98
2019-05-26T10:40:42.420Z,100262.68
2019-05-26T10:43:10.071Z,100262.05
2019-05-26T10:45:37.996Z,100265.67
2019-05-26T10:48:05.677Z,100268.47
2019-05-26T10:50:33.449Z,100258.57
2019-05-26T10:53:01.517Z,100253.75
2019-05-26T10:55:29.192Z,100258.64
2019-05-26T10:57:56.858Z,100236.30
2019-05-26T11:00:24.646Z,100236.30
2019-05-26T11:02:52.347Z,100244.69
2019-05-26T11:05:20.171Z,100237.58
2019-05-26T11:07:47.928Z,100233.76
2019-05-26T11:10:15.599Z,100239.70
2019-05-26T11:12:43.332Z,100240.79
2019-05-26T11:15:11.046Z,100228.62
2019-05-26T11:17:38.730Z,100220.87
2019-05-26T11:20:06.387Z,100209.79
2019-05-26T11:22:34.076Z,100215.00
2019-05-26T11:25:01.743Z,100212.31
2019-05-26T11:27:29.406Z,100216.29
2019-05-26T11:29:57.084Z,100216.48
2019-05-26T11:32:24.832Z,100199.71
2019-05-26T11:35:01.246Z,100210.38
2019-05-26T11:37:21.852Z,100205.12
2019-05-26T11:39:49.571Z,100203.37
2019-05-26T11:42:17.232Z,100193.33
2019-05-26T11:44:44.889Z,100189.81
2019-05-26T11:47:12.557Z,100187.05
2019-05-26T11:49:40.216Z,100187.39
2019-05-26T11:52:07.932Z,100186.31
2019-05-26T11:54:35.631Z,100184.22
2019-05-26T11:57:03.388Z,100171.02
2019-05-26T11:59:31.060Z,100180.78
2019-05-26T12:01:58.742Z,100173.93
2019-05-26T12:04:26.407Z,100164.62
2019-05-26T12:06:54.070Z,100147.22
2019-05-26T12:09:21.745Z,100149.30
2019-05-26T12:11:49.404Z,100150.16
2019-05-26T12:14:33.053Z,100147.38
2019-05-26T12:16:46.511Z,100142.76
2019-05-26T12:19:14.347Z,100146.41
2019-05-26T12:21:42.136Z,100152.55
2019-05-26T12:24:09.792Z,100138.88
2019-05-26T12:26:37.475Z,100139.95
2019-05-26T12:29:05.138Z,100142.55
2019-05-26T12:31:32.814Z,100134.87
2019-05-26T12:34:00.477Z,100124.30
2019-05-26T12:36:28.137Z,100122.52
2019-05-26T12:38:55.838Z,100118.40
2019-05-26T12:41:23.684Z,100112.41
2019-05-26T12:43:51.570Z,100117.09
2019-05-26T12:46:19.319Z,100109.55
2019-05-26T12:48:46.983Z,100109.55
2019-05-26T12:51:14.648Z,100112.14
2019-05-26T12:53:42.323Z,100112.88
2019-05-26T12:56:09.995Z,100112.88
2019-05-26T12:58:37.724Z,100111.72
2019-05-26T13:01:05.529Z,100109.44
2019-05-26T13:03:33.224Z,100114.96
2019-05-26T13:06:00.898Z,100103.12
2019-05-26T13:08:28.552Z,100097.27
2019-05-26T13:10:56.208Z,100102.06
2019-05-26T13:13:23.902Z,100089.27
2019-05-26T13:15:51.596Z,100082.25
2019-05-26T13:18:19.500Z,100079.14
2019-05-26T13:20:47.364Z,100082.37
2019-05-26T13:23:15.040Z,100072.77
2019-05-26T13:25:42.693Z,100080.73
2019-05-26T13:28:10.384Z,100082.97
2019-05-26T13:30:38.100Z,100083.39
2019-05-26T13:33:05.940Z,100080.98
2019-05-26T13:35:33.872Z,100073.45
2019-05-26T13:38:01.540Z,100063.08
2019-05-26T13:40:29.785Z,100063.08
2019-05-26T13:42:57.563Z,100079.56
2019-05-26T13:45:25.220Z,100071.15
2019-05-26T13:47:52.925Z,100062.99
2019-05-26T13:50:20.800Z,100066.81
2019-05-26T13:52:48.451Z,100073.05
2019-05-26T13:55:16.117Z,100062.83
2019-05-26T13:57:43.763Z,100058.44
2019-05-26T14:00:11.669Z,100072.69
2019-05-26T14:02:39.525Z,100067.83
2019-05-26T14:05:07.464Z,100058.91
2019-05-26T14:07:35.135Z,100061.02
2019-05-26T14:10:02.779Z,100067.92
2019-05-26T14:12:30.443Z,100064.30
2019-05-26T14:14:58.104Z,100060.11
2019-05-26T14:17:25.936Z,100058.56
2019-05-26T14:19:53.617Z,100055.08
2019-05-26T14:22:21.279Z,100063.75
2019-05-26T14:24:53.887Z,100060.30
2019-05-26T14:27:18.437Z,100057.17
2019-05-26T14:29:46.089Z,100042.59
2019-05-26T14:32:13.748Z,100051.48
2019-05-26T14:34:41.407Z,100047.52
2019-05-26T14:37:09.080Z,100046.81
2019-05-26T14:39:36.735Z,100048.90
2019-05-26T14:42:04.526Z,100042.86
2019-05-26T14:44:32.384Z,100039.50
2019-05-26T14:47:00.063Z,100040.23
2019-05-26T14:49:27.746Z,100027.92
2019-05-26T14:51:55.467Z,100030.21
2019-05-26T14:54:23.140Z,100033.25
2019-05-26T14:56:50.805Z,100035.70
2019-05-26T14:59:18.694Z,100031.47
2019-05-26T15:01:46.481Z,100030.09
2019-05-26T15:04:14.149Z,100020.24
2019-05-26T15:06:41.815Z,100025.84
2019-05-26T15:09:24.260Z,100028.42
2019-05-26T15:11:39.034Z,100021.39
2019-05-26T15:14:06.826Z,100021.45
2019-05-26T15:16:34.568Z,100018.28
2019-05-26T15:19:02.264Z,100009.69
2019-05-26T15:21:30.002Z,100017.95
2019-05-26T15:23:57.704Z,100013.87
2019-05-26T15:26:25.488Z,100011.91
2019-05-26T15:28:53.854Z,100012.52
2019-05-26T15:31:21.581Z,100008.23
2019-05-26T15:33:49.395Z,100007.50
2019-05-26T15:36:17.062Z,100016.53
2019-05-26T15:38:44.733Z,100016.53
2019-05-26T15:41:12.404Z,100017.22
2019-05-26T15:43:40.073Z,100015.98
2019-05-26T15:46:07.881Z,100005.77
2019-05-26T15:48:35.564Z,100008.50
2019-05-26T15:51:03.350Z,100007.00
2019-05-26T15:53:31.203Z,100006.32
2019-05-26T15:55:59.051Z,100004.05
2019-05-26T15:58:26.757Z,100004.05
2019-05-26T16:00:54.431Z,100008.73
2019-05-26T16:03:22.098Z,100002.50
2019-05-26T16:05:49.765Z,100002.84
2019-05-26T16:08:17.477Z,100003.52
2019-05-26T16:10:45.135Z,100005.39
2019-05-26T16:13:12.797Z,100005.20
2019-05-26T16:15:40.445Z,99998.08
2019-05-26T16:18:08.117Z,100005.47
2019-05-26T16:20:35.955Z,100005.78
2019-05-26T16:23:03.616Z,100013.06
2019-05-26T16:25:31.273Z,100012.05
2019-05-26T16:27:58.928Z,100007.22
2019-05-26T16:30:26.597Z,100005.94
2019-05-26T16:32:54.248Z,100002.31
2019-05-26T16:35:21.914Z,100000.34
2019-05-26T16:37:49.571Z,99996.30
2019-05-26T16:40:17.282Z,99992.45
2019-05-26T16:42:44.942Z,99999.94
2019-05-26T16:45:12.659Z,99993.67
2019-05-26T16:47:40.385Z,99991.00
2019-05-26T16:50:08.054Z,99985.66
2019-05-26T16:52:35.721Z,99990.42
2019-05-26T16:55:03.407Z,99985.47
2019-05-26T16:57:31.047Z,99989.74
2019-05-26T16:59:58.707Z,99987.48
2019-05-26T17:02:26.421Z,99988.16
2019-05-26T17:04:54.080Z,99993.19
2019-05-26T17:07:21.732Z,99984.45
2019-05-26T17:09:49.437Z,99985.19
2019-05-26T17:12:17.136Z,99982.84
2019-05-26T17:14:44.905Z,99985.97
2019-05-26T17:17:15.183Z,99987.80
2019-05-26T17:19:41.953Z,99986.27
2019-05-26T17:22:09.692Z,99987.23
2019-05-26T17:24:37.408Z,99986.86
2019-05-26T17:27:05.072Z,99982.83
2019-05-26T17:29:32.812Z,99978.57
2019-05-26T17:32:00.477Z,99978.42
2019-05-26T17:34:28.150Z,99980.13
2019-05-26T17:36:55.796Z,99975.17
2019-05-26T17:39:23.544Z,99974.69
2019-05-26T17:41:51.188Z,99973.59
2019-05-26T17:44:18.856Z,99975.41
2019-05-26T17:46:46.525Z,99975.59
2019-05-26T17:49:14.199Z,99971.78
2019-05-26T17:51:41.897Z,99975.92
2019-05-26T17:54:09.601Z,99981.34
2019-05-26T17:56:37.275Z,99976.13
2019-05-26T17:59:04.952Z,99979.83
2019-05-26T18:01:32.685Z,99972.36
2019-05-26T18:04:00.495Z,99971.02
2019-05-26T18:06:28.220Z,99967.73
2019-05-26T18:08:55.880Z,99969.78
2019-05-26T18:11:23.547Z,99969.45
2019-05-26T18:13:51.251Z,99973.42
2019-05-26T18:16:19.147Z,99973.91
2019-05-26T18:18:46.904Z,99970.09
2019-05-26T18:21:14.558Z,99966.51
2019-05-26T18:23:42.216Z,99966.41
2019-05-26T18:26:09.891Z,99966.62
2019-05-26T18:28:37.549Z,99970.09
2019-05-26T18:31:05.211Z,99961.70
2019-05-26T18:33:32.897Z,99957.69
2019-05-26T18:36:00.584Z,99960.80
2019-05-26T18:38:28.243Z,99962.87
2019-05-26T18:40:56.101Z,99961.27
2019-05-26T18:43:23.807Z,99967.36
2019-05-26T18:45:51.536Z,99966.98
2019-05-26T18:48:19.271Z,99975.27
2019-05-26T18:50:47.033Z,99969.36
2019-05-26T18:53:14.722Z,99970.40
2019-05-26T18:55:42.374Z,99979.81
2019-05-26T18:58:10.028Z,99976.46
2019-05-26T19:00:37.673Z,99975.42
2019-05-26T19:03:05.333Z,99978.77
2019-05-26T19:05:38.072Z,99974.91
2019-05-26T19:08:02.416Z,99979.19
2019-05-26T19:10:30.067Z,99973.31
2019-05-26T19:12:57.711Z,99978.33
2019-05-26T19:15:25.740Z,99985.20
2019-05-26T19:17:53.581Z,99982.66
2019-05-26T19:20:21.241Z,99984.04
2019-05-26T19:22:48.896Z,99982.66
2019-05-26T19:25:16.572Z,99983.66
2019-05-26T19:27:44.292Z,99983.42
2019-05-26T19:30:11.944Z,99987.84
2019-05-26T19:32:39.693Z,99980.94
2019-05-26T19:35:07.355Z,99982.65
2019-05-26T19:37:35.018Z,99987.18
2019-05-26T19:40:02.656Z,99988.55
2019-05-26T19:42:30.312Z,99990.41
2019-05-26T19:44:57.957Z,99985.27
2019-05-26T19:47:25.604Z,99982.27
2019-05-26T19:49:53.401Z,99980.08
2019-05-26T19:52:21.168Z,99977.70
2019-05-26T19:54:48.886Z,99984.33
2019-05-26T19:57:16.533Z,99979.43
2019-05-26T19:59:44.267Z,99981.52
2019-05-26T20:02:18.257Z,99977.84
2019-05-26T20:04:41.376Z,99974.44
2019-05-26T20:07:09.103Z,99975.95
2019-05-26T20:09:36.747Z,99971.55
2019-05-26T20:12:04.599Z,99974.20
2019-05-26T20:14:32.251Z,99972.19
2019-05-26T20:16:59.897Z,99970.20
2019-05-26T20:19:27.575Z,99974.33
2019-05-26T20:21:55.359Z,99971.19
2019-05-26T20:24:23.217Z,99972.71
2019-05-26T20:26:50.864Z,99978.31
2019-05-26T20:29:18.522Z,99978.50
2019-05-26T20:31:46.179Z,99974.33
2019-05-26T20:34:13.835Z,99973.56
2019-05-26T20:36:41.493Z,99970.67
2019-05-26T20:39:09.151Z,99971.41
2019-05-26T20:41:36.815Z,99972.77
2019-05-26T20:44:04.551Z,99967.50
2019-05-26T21:01:07.780Z,99975.09
2019-05-26T21:03:35.429Z,99965.61
2019-05-26T21:06:03.209Z,99974.91
2019-05-26T21:08:31.035Z,99974.56
2019-05-26T21:10:58.695Z,99959.47
2019-05-26T21:13:26.432Z,99973.99
2019-05-26T21:15:54.076Z,99978.55
2019-05-26T21:18:21.738Z,99970.51
2019-05-26T21:20:49.377Z,99978.73
2019-05-26T21:23:17.226Z,99975.88
2019-05-26T21:25:44.869Z,99976.72
2019-05-26T21:28:12.700Z,99971.71
2019-05-26T21:30:40.368Z,99972.25
2019-05-26T21:33:08.028Z,99973.41
2019-05-26T21:35:35.667Z,99965.52
2019-05-26T21:38:03.340Z,99969.84
2019-05-26T21:40:31.158Z,99964.36
2019-05-26T21:42:58.799Z,99963.19
2019-05-26T21:45:26.469Z,99967.34
2019-05-26T21:47:54.335Z,99966.35
2019-05-26T21:50:21.984Z,99963.14
2019-05-26T21:52:49.640Z,99966.12
2019-05-26T21:55:17.331Z,99967.48
2019-05-26T21:57:45.045Z,99964.05
2019-05-26T22:00:14.399Z,99963.70
2019-05-26T22:02:42.055Z,99960.69
2019-05-26T22:05:09.895Z,99956.63
2019-05-26T22:07:37.617Z,99960.89
2019-05-26T22:10:05.332Z,99961.25
2019-05-26T22:12:33.255Z,99955.64
2019-05-26T22:15:00.968Z,99953.75
2019-05-26T22:17:28.801Z,99956.53
2019-05-26T22:19:56.450Z,99954.92
2019-05-26T22:22:24.109Z,99947.13
2019-05-26T22:24:51.752Z,99948.91
2019-05-26T22:27:19.399Z,99943.57
2019-05-26T22:29:47.238Z,99947.26
2019-05-26T22:32:14.893Z,99947.05
2019-05-26T22:34:42.531Z,99949.52
2019-05-26T22:37:10.421Z,99947.08
2019-05-26T22:39:38.079Z,99938.44
2019-05-26T22:42:05.758Z,99939.23
2019-05-26T22:44:33.480Z,99940.25
2019-05-26T22:47:01.134Z,99933.84
2019-05-26T22:49:28.773Z,99935.36
2019-05-26T22:51:56.689Z,99939.31
2019-05-26T22:54:24.375Z,99935.48
2019-05-26T22:56:52.039Z,99935.25
2019-05-26T22:59:19.696Z,99933.60
2019-05-26T23:01:47.352Z,99925.86
2019-05-26T23:04:15.020Z,99926.09
2019-05-26T23:06:42.673Z,99928.25
2019-05-26T23:09:10.331Z,99924.41
2019-05-26T23:11:38.015Z,99931.89
2019-05-26T23:14:05.952Z,99928.59
2019-05-26T23:16:33.689Z,99925.45
2019-05-26T23:19:01.320Z,99925.83
2019-05-26T23:21:29.139Z,99927.24
2019-05-26T23:23:56.825Z,99927.58
2019-05-26T23:26:24.721Z,99930.36
2019-05-26T23:28:52.475Z,99927.39
2019-05-26T23:31:20.179Z,99916.26
2019-05-26T23:33:48.185Z,99918.92
2019-05-26T23:36:15.839Z,99918.36
2019-05-26T23:38:43.489Z,99917.27
2019-05-26T23:41:11.335Z,99916.16
2019-05-26T23:43:39.015Z,99913.00
2019-05-26T23:46:06.660Z,99910.95
2019-05-26T23:48:34.445Z,99909.96
2019-05-26T23:51:02.164Z,99908.94
2019-05-26T23:53:29.890Z,99912.28
2019-05-26T23:55:57.944Z,99905.73
2019-05-26T23:58:25.688Z,99907.23
